Time;durP1;ratioP1;P1;durP2;ratioP2;P2;SDS_P1;SDS_P2;PMS_P1;PMS_P2;Temp;Humidity;BMP_temperature;BMP_pressure;BME280_temperature;BME280_humidity;BME280_pressure;Samples;Min_cycle;Max_cycle;Signal;HPM_P1;HPM_P2
2023/05/03 00:01:17;;;;;;;8.27;3.40;;;;;;;10.35;64.75;100877.03;4226853;28;21649;-65
2023/05/03 00:03:44;;;;;;;10.87;3.43;;;;;;;10.28;65.02;100865.88;4216416;28;20759;-64
2023/05/03 00:06:15;;;;;;;9.57;3.40;;;;;;;10.20;66.01;100872.97;4230714;28;20262;-64
2023/05/03 00:08:41;;;;;;;9.93;2.80;;;;;;;10.24;66.04;100877.09;4234799;28;21063;-67
2023/05/03 00:11:08;;;;;;;9.80;3.23;;;;;;;10.30;66.22;100880.16;4224697;28;21330;-67
2023/05/03 00:13:35;;;;;;;11.90;3.30;;;;;;;10.25;66.59;100881.53;4225894;28;20706;-64
2023/05/03 00:16:02;;;;;;;11.30;3.80;;;;;;;10.15;67.32;100876.06;4214210;28;21387;-65
2023/05/03 00:18:29;;;;;;;8.00;3.43;;;;;;;10.20;67.36;100879.22;4236153;28;20243;-67
2023/05/03 00:20:58;;;;;;;9.77;3.40;;;;;;;10.09;67.50;100873.91;4226718;28;20234;-66
2023/05/03 00:23:25;;;;;;;9.43;3.87;;;;;;;10.06;67.84;100880.44;4230575;28;20227;-65
2023/05/03 00:25:56;;;;;;;11.23;3.60;;;;;;;10.09;67.62;100882.03;4233672;28;21641;-65
2023/05/03 00:28:23;;;;;;;7.23;3.17;;;;;;;10.01;67.76;100866.44;4228813;28;20240;-63
2023/05/03 00:30:51;;;;;;;11.20;4.00;;;;;;;10.02;68.04;100870.03;4223858;28;22045;-66
2023/05/03 00:33:18;;;;;;;9.00;3.53;;;;;;;10.12;67.20;100870.94;4232168;28;20227;-65
2023/05/03 00:35:44;;;;;;;13.07;3.57;;;;;;;10.05;65.79;100865.19;4234958;28;20227;-64
2023/05/03 00:38:13;;;;;;;7.77;3.20;;;;;;;10.11;65.29;100856.53;4236193;28;20422;-65
2023/05/03 00:40:39;;;;;;;7.80;3.00;;;;;;;9.93;63.60;100852.75;4219654;28;20409;-65
2023/05/03 00:43:06;;;;;;;8.70;3.07;;;;;;;9.94;63.00;100851.75;4232477;28;21105;-64
2023/05/03 00:45:33;;;;;;;8.33;2.73;;;;;;;9.82;62.52;100864.47;4228600;28;20905;-64
2023/05/03 00:48:00;;;;;;;5.70;2.37;;;;;;;9.81;61.56;100870.91;4215835;28;22893;-66
2023/05/03 00:50:27;;;;;;;7.80;2.27;;;;;;;9.81;61.95;100870.91;4215814;28;20430;-64
2023/05/03 00:52:54;;;;;;;8.43;2.50;;;;;;;9.73;61.38;100863.44;4227054;28;20227;-64
2023/05/03 00:55:21;;;;;;;8.53;2.20;;;;;;;9.68;61.65;100879.19;4237390;28;20321;-65
2023/05/03 00:57:47;;;;;;;6.10;2.50;;;;;;;9.54;62.48;100879.50;4225646;28;20594;-65
2023/05/03 01:00:14;;;;;;;8.70;2.70;;;;;;;9.58;63.09;100886.34;4214776;28;21109;-66
2023/05/03 01:02:40;;;;;;;5.97;2.57;;;;;;;9.54;64.53;100890.31;4217384;28;22101;-63
2023/05/03 01:05:07;;;;;;;9.77;3.20;;;;;;;9.52;66.20;100890.44;4233745;28;20236;-65
2023/05/03 01:07:40;;;;;;;7.67;2.70;;;;;;;9.52;66.53;100887.72;4227320;28;20246;-64
2023/05/03 01:10:20;;;;;;;9.83;3.17;;;;;;;9.40;67.57;100902.28;4213481;28;22129;-65
2023/05/03 01:13:22;;;;;;;8.47;3.10;;;;;;;9.28;68.57;100894.22;4213711;28;23707;-63
2023/05/03 01:16:10;;;;;;;8.60;3.33;;;;;;;9.25;68.61;100902.56;4212094;28;21851;-63
2023/05/03 01:18:39;;;;;;;7.87;2.93;;;;;;;9.18;69.21;100904.06;4224980;28;20233;-63
2023/05/03 01:21:08;;;;;;;8.63;3.03;;;;;;;9.07;69.58;100906.78;4225226;28;20249;-64
2023/05/03 01:23:56;;;;;;;7.97;3.27;;;;;;;9.16;69.18;100906.91;4234946;28;22124;-64
2023/05/03 01:26:24;;;;;;;5.30;2.70;;;;;;;9.18;68.30;100901.38;4229951;28;22667;-67
2023/05/03 01:28:51;;;;;;;8.37;3.23;;;;;;;9.03;68.34;100912.47;4231639;28;22992;-65
2023/05/03 01:31:25;;;;;;;8.20;2.80;;;;;;;8.78;68.52;100918.13;4232922;28;21856;-65
2023/05/03 01:34:06;;;;;;;5.43;2.50;;;;;;;8.69;68.52;100915.19;4233602;28;21145;-64
2023/05/03 01:36:34;;;;;;;8.03;2.90;;;;;;;8.74;67.96;100911.28;4217385;28;20239;-64
2023/05/03 01:39:13;;;;;;;5.73;2.27;;;;;;;8.68;67.41;100921.59;4218567;28;20307;-64
2023/05/03 01:41:40;;;;;;;6.10;2.40;;;;;;;8.67;67.13;100924.38;4214786;28;20243;-65
2023/05/03 01:44:08;;;;;;;7.67;2.20;;;;;;;8.56;67.04;100931.53;4220438;28;23510;-66
2023/05/03 01:46:41;;;;;;;10.17;2.57;;;;;;;8.43;68.11;100935.28;4226726;28;20619;-62
2023/05/03 01:49:08;;;;;;;5.67;2.50;;;;;;;8.40;67.94;100936.38;4218228;28;20858;-63
2023/05/03 01:51:34;;;;;;;5.20;2.37;;;;;;;8.33;67.93;100924.34;4232641;28;26430;-65
2023/05/03 01:54:01;;;;;;;13.57;5.73;;;;;;;8.30;68.99;100928.16;4223592;28;23125;-63
2023/05/03 01:56:29;;;;;;;5.70;2.50;;;;;;;8.31;68.78;100923.59;4229448;28;22442;-63
2023/05/03 01:58:56;;;;;;;7.43;2.80;;;;;;;8.40;68.03;100920.19;4215607;28;20224;-66
2023/05/03 02:01:22;;;;;;;8.27;2.83;;;;;;;8.37;68.00;100921.28;4222301;28;20235;-65
2023/05/03 02:03:49;;;;;;;4.30;2.37;;;;;;;8.24;68.91;100917.81;4241265;28;20265;-65
2023/05/03 02:06:15;;;;;;;6.47;2.60;;;;;;;8.24;69.07;100915.13;4222169;28;20293;-65
2023/05/03 02:08:42;;;;;;;9.33;2.80;;;;;;;8.18;69.30;100915.63;4228757;28;20277;-64
2023/05/03 02:11:08;;;;;;;7.63;2.70;;;;;;;8.20;69.43;100908.28;4230778;28;20332;-64
2023/05/03 02:13:36;;;;;;;6.40;2.70;;;;;;;8.25;69.27;100915.03;4233101;28;20307;-65
2023/05/03 02:16:03;;;;;;;8.50;3.17;;;;;;;8.30;69.20;100917.38;4218634;28;22202;-65
2023/05/03 02:18:30;;;;;;;10.80;3.40;;;;;;;8.30;69.51;100920.06;4237274;28;20527;-63
2023/05/03 02:20:56;;;;;;;6.53;2.63;;;;;;;8.37;69.87;100929.38;4226987;28;22844;-64
2023/05/03 02:23:23;;;;;;;7.60;2.70;;;;;;;8.39;69.85;100929.25;4226984;28;20417;-66
2023/05/03 02:25:50;;;;;;;6.97;2.60;;;;;;;8.46;69.84;100935.88;4228735;28;20236;-64
2023/05/03 02:28:16;;;;;;;8.97;3.47;;;;;;;8.52;69.57;100953.47;4222770;28;20344;-64
2023/05/03 02:30:43;;;;;;;10.13;3.20;;;;;;;8.26;70.27;100942.84;4225301;28;20426;-63
2023/05/03 02:33:09;;;;;;;9.07;3.03;;;;;;;8.24;70.22;100944.78;4234028;28;20235;-65
2023/05/03 02:35:36;;;;;;;6.73;2.47;;;;;;;8.32;69.58;100942.34;4218799;28;20239;-67
2023/05/03 02:38:03;;;;;;;9.37;3.03;;;;;;;8.23;69.59;100938.56;4233251;28;20329;-65
2023/05/03 02:40:29;;;;;;;6.53;2.27;;;;;;;8.06;70.02;100939.00;4228821;28;20317;-67
2023/05/03 02:42:56;;;;;;;10.47;3.07;;;;;;;7.99;69.92;100935.94;4226975;28;20379;-64
2023/05/03 02:45:23;;;;;;;8.47;2.63;;;;;;;7.95;69.95;100947.06;4229986;28;20235;-64
2023/05/03 02:47:49;;;;;;;9.60;2.80;;;;;;;7.86;70.23;100936.00;4230441;28;21989;-64
2023/05/03 02:50:16;;;;;;;6.10;2.27;;;;;;;7.87;70.02;100939.56;4229924;28;20235;-65
2023/05/03 02:52:43;;;;;;;12.33;2.80;;;;;;;7.88;69.81;100941.28;4225103;28;21867;-65
2023/05/03 02:55:09;;;;;;;13.23;2.63;;;;;;;7.90;69.44;100942.88;4220361;28;20237;-64
2023/05/03 02:57:36;;;;;;;7.47;2.87;;;;;;;7.99;69.06;100935.94;4220740;28;23533;-66
2023/05/03 03:00:04;;;;;;;7.87;2.90;;;;;;;8.08;68.25;100937.91;4238964;28;20234;-67
2023/05/03 03:02:31;;;;;;;5.80;2.00;;;;;;;8.09;68.44;100933.38;4219620;28;21789;-64
2023/05/03 03:04:58;;;;;;;6.87;2.63;;;;;;;8.05;68.50;100940.84;4228006;28;20692;-67
2023/05/03 03:07:25;;;;;;;7.10;2.40;;;;;;;7.97;68.69;100940.56;4232486;28;20295;-63
2023/05/03 03:09:51;;;;;;;7.23;2.50;;;;;;;8.02;68.57;100943.78;4229161;28;20307;-63
2023/05/03 03:12:18;;;;;;;9.40;2.97;;;;;;;8.07;68.40;100938.03;4224920;28;21088;-63
2023/05/03 03:14:44;;;;;;;7.17;2.90;;;;;;;8.22;68.17;100953.00;4220575;28;20307;-64
2023/05/03 03:17:11;;;;;;;8.47;2.90;;;;;;;8.20;68.04;100951.41;4239562;28;20257;-65
2023/05/03 03:19:38;;;;;;;10.40;3.13;;;;;;;8.19;68.53;100947.00;4227126;28;20231;-64
2023/05/03 03:22:05;;;;;;;8.43;2.80;;;;;;;8.12;68.93;100959.25;4225206;28;20242;-64
2023/05/03 03:24:32;;;;;;;6.20;2.60;;;;;;;8.02;69.72;100959.09;4228277;28;20223;-63
2023/05/03 03:26:58;;;;;;;10.60;3.23;;;;;;;7.99;69.64;100952.13;4239542;28;20242;-65
2023/05/03 03:29:26;;;;;;;9.47;3.20;;;;;;;8.03;70.13;100964.38;4250678;28;25467;-63
2023/05/03 03:31:53;;;;;;;8.80;2.80;;;;;;;8.20;69.05;100962.22;4248335;28;20378;-64
2023/05/03 03:34:20;;;;;;;10.30;2.83;;;;;;;8.07;69.02;100971.25;4260127;28;25556;-65
2023/05/03 03:36:47;;;;;;;8.87;3.07;;;;;;;7.93;69.44;100966.91;4242770;28;20231;-66
2023/05/03 03:39:14;;;;;;;6.00;2.77;;;;;;;8.00;69.46;100974.53;4235744;28;21841;-65
2023/05/03 03:41:41;;;;;;;11.20;3.20;;;;;;;8.02;69.41;100980.66;4239194;28;20236;-68
2023/05/03 03:44:07;;;;;;;9.37;3.53;;;;;;;8.00;69.48;100978.09;4248980;28;21583;-64
2023/05/03 03:46:34;;;;;;;8.17;2.90;;;;;;;8.00;69.39;100975.41;4245566;28;21638;-67
2023/05/03 03:49:01;;;;;;;8.37;3.57;;;;;;;8.13;69.14;100964.50;4249229;28;20239;-66
2023/05/03 03:51:28;;;;;;;11.63;3.10;;;;;;;8.22;68.80;100974.59;4239334;28;20234;-65
2023/05/03 03:53:54;;;;;;;5.23;2.50;;;;;;;8.35;68.13;100990.69;4234469;28;22449;-64
2023/05/03 03:56:22;;;;;;;7.77;3.17;;;;;;;8.28;68.73;100993.97;4244094;28;20257;-64
2023/05/03 03:58:49;;;;;;;8.17;3.27;;;;;;;8.14;68.39;100997.75;4243360;28;20398;-64
2023/05/03 04:01:15;;;;;;;6.43;2.97;;;;;;;8.09;68.24;100998.09;4240645;28;20426;-63
2023/05/03 04:03:46;;;;;;;9.53;3.17;;;;;;;7.83;68.93;101000.06;4242660;28;20971;-65
2023/05/03 04:06:12;;;;;;;8.57;2.90;;;;;;;8.15;67.89;101000.31;4254780;28;20303;-63
2023/05/03 04:08:39;;;;;;;7.27;2.97;;;;;;;8.28;67.09;101010.16;4239375;28;26550;-67
2023/05/03 04:11:11;;;;;;;9.43;2.77;;;;;;;8.36;66.49;101013.13;4230675;28;21341;-64
2023/05/03 04:13:37;;;;;;;5.93;2.60;;;;;;;8.31;66.76;101016.16;4216128;28;20236;-64
2023/05/03 04:16:05;;;;;;;7.83;2.53;;;;;;;8.23;67.33;101022.16;4221414;28;20230;-64
2023/05/03 04:18:32;;;;;;;8.37;2.60;;;;;;;8.11;67.08;101023.13;4233151;28;20239;-63
2023/05/03 04:20:59;;;;;;;5.27;2.67;;;;;;;8.22;66.15;101020.44;4212520;28;20235;-64
2023/05/03 04:23:25;;;;;;;6.77;3.03;;;;;;;8.16;66.35;101011.94;4232197;28;20239;-67
2023/05/03 04:25:52;;;;;;;6.00;2.27;;;;;;;8.45;65.25;101014.25;4254035;28;20292;-63
2023/05/03 04:28:19;;;;;;;6.30;2.30;;;;;;;8.52;64.49;101024.47;4220382;28;20315;-64
2023/05/03 04:30:46;;;;;;;6.33;3.00;;;;;;;8.63;63.84;101025.47;4199512;28;22097;-63
2023/05/03 04:33:12;;;;;;;5.93;2.70;;;;;;;8.80;63.43;101016.06;4232862;28;20268;-64
2023/05/03 04:35:40;;;;;;;8.70;2.77;;;;;;;9.02;62.75;101023.31;4241987;28;20570;-64
2023/05/03 04:38:07;;;;;;;6.07;2.40;;;;;;;9.29;62.40;101032.84;4228550;28;20246;-65
2023/05/03 04:40:34;;;;;;;4.37;2.13;;;;;;;9.25;62.08;101023.31;4221873;28;20236;-64
2023/05/03 04:43:01;;;;;;;4.87;2.40;;;;;;;9.09;60.88;101037.16;4232828;28;26326;-66
2023/05/03 04:45:27;;;;;;;4.83;2.33;;;;;;;8.91;62.00;101026.88;4223869;28;20282;-64
2023/05/03 04:47:54;;;;;;;10.17;3.20;;;;;;;8.91;61.63;101026.88;4222472;28;23360;-63
2023/05/03 04:50:21;;;;;;;4.80;2.47;;;;;;;9.13;61.17;101042.19;4212838;28;21118;-64
2023/05/03 04:52:47;;;;;;;5.37;2.43;;;;;;;9.21;61.14;101044.31;4223005;28;20421;-65
2023/05/03 04:55:14;;;;;;;4.07;2.30;;;;;;;8.95;62.16;101052.63;4232055;28;23996;-66
2023/05/03 04:57:41;;;;;;;7.37;2.37;;;;;;;8.91;62.03;101053.00;4232867;28;20409;-65
2023/05/03 05:00:11;;;;;;;11.33;2.60;;;;;;;9.08;60.90;101051.66;4212796;28;20310;-62
2023/05/03 05:02:38;;;;;;;4.40;2.17;;;;;;;8.79;61.89;101054.81;4235966;28;20230;-63
2023/05/03 05:05:05;;;;;;;6.40;2.27;;;;;;;8.74;61.83;101055.19;4229035;28;20236;-64
2023/05/03 05:07:31;;;;;;;6.30;2.50;;;;;;;8.77;62.18;101059.47;4250857;28;21776;-64
2023/05/03 05:09:58;;;;;;;6.73;2.20;;;;;;;8.86;61.73;101056.94;4228401;28;22225;-64
2023/05/03 05:12:25;;;;;;;5.73;2.20;;;;;;;8.76;61.87;101064.03;4226477;28;20239;-63
2023/05/03 05:14:51;;;;;;;4.37;2.10;;;;;;;9.07;61.58;101055.31;4235553;28;20487;-64
2023/05/03 05:17:18;;;;;;;9.50;3.03;;;;;;;9.31;60.24;101066.88;4232485;28;20231;-64
2023/05/03 05:19:44;;;;;;;7.00;2.20;;;;;;;9.33;58.78;101066.75;4219623;28;20688;-63
2023/05/03 05:22:11;;;;;;;4.73;2.20;;;;;;;9.36;58.07;101070.06;4227127;28;20292;-66
2023/05/03 05:24:37;;;;;;;5.90;2.40;;;;;;;9.49;57.38;101069.06;4235680;28;21183;-63
2023/05/03 05:27:05;;;;;;;3.57;1.80;;;;;;;9.55;57.01;101065.03;4230531;28;20238;-65
2023/05/03 05:29:32;;;;;;;5.07;2.27;;;;;;;9.39;57.57;101068.97;4206113;28;20236;-66
2023/05/03 05:32:00;;;;;;;6.67;2.50;;;;;;;9.49;57.70;101061.81;4229792;28;21328;-67
2023/05/03 05:34:27;;;;;;;5.37;2.10;;;;;;;9.35;57.91;101062.97;4237479;28;25897;-65
2023/05/03 05:36:57;;;;;;;4.73;2.30;;;;;;;9.36;58.06;101069.22;4228105;28;20315;-67
2023/05/03 05:39:24;;;;;;;4.27;1.73;;;;;;;9.66;56.97;101078.50;4205879;28;21186;-63
2023/05/03 05:41:51;;;;;;;2.53;1.70;;;;;;;9.79;56.00;101072.94;4228796;28;20549;-66
2023/05/03 05:44:17;;;;;;;4.67;2.00;;;;;;;9.85;55.31;101082.41;4236503;28;20339;-66
2023/05/03 05:46:45;;;;;;;4.23;1.77;;;;;;;10.04;54.21;101082.59;4224105;28;20638;-69
2023/05/03 05:49:12;;;;;;;5.13;1.77;;;;;;;9.92;53.40;101086.31;4235924;28;20235;-67
2023/05/03 05:51:38;;;;;;;5.00;1.93;;;;;;;9.92;52.43;101083.63;4253005;28;20306;-66
2023/05/03 05:54:05;;;;;;;3.83;1.53;;;;;;;10.05;50.78;101081.59;4235129;28;22147;-67
2023/05/03 05:56:33;;;;;;;2.80;1.43;;;;;;;10.77;49.88;101088.16;4232518;28;20471;-64
2023/05/03 05:58:59;;;;;;;3.90;1.43;;;;;;;11.86;47.39;101095.75;4232799;28;20833;-65
2023/05/03 06:01:26;;;;;;;4.23;1.50;;;;;;;13.14;43.59;101096.56;4239377;28;20266;-66
2023/05/03 06:03:54;;;;;;;7.60;1.67;;;;;;;14.14;41.35;101095.94;4226615;28;21455;-62
2023/05/03 06:06:20;;;;;;;5.50;1.40;;;;;;;14.97;39.08;101099.41;4230264;28;25377;-65
2023/05/03 06:08:50;;;;;;;3.50;1.60;;;;;;;15.58;37.10;101104.84;4271858;28;20235;-68
2023/05/03 06:11:17;;;;;;;2.73;1.30;;;;;;;16.62;34.67;101106.28;4237165;28;21813;-70
2023/05/03 06:13:43;;;;;;;4.23;1.30;;;;;;;16.94;33.46;101112.78;4220645;28;21280;-73
2023/05/03 06:16:10;;;;;;;6.17;1.50;;;;;;;17.44;32.32;101104.47;4230461;28;20646;-66
2023/05/03 06:18:37;;;;;;;5.77;1.30;;;;;;;18.07;31.61;101100.97;4231013;28;20230;-69
2023/05/03 06:21:04;;;;;;;4.53;1.20;;;;;;;18.84;30.32;101103.59;4243965;28;20291;-72
2023/05/03 06:23:32;;;;;;;2.97;1.37;;;;;;;19.61;29.43;101106.25;4219246;28;23223;-69
2023/05/03 06:25:58;;;;;;;3.80;1.50;;;;;;;19.43;28.36;101112.13;4224865;28;20239;-64
2023/05/03 06:28:25;;;;;;;3.10;1.30;;;;;;;20.02;28.28;101111.22;4258288;28;20231;-65
2023/05/03 06:30:51;;;;;;;1.57;1.00;;;;;;;20.55;27.59;101110.94;4241795;28;21334;-65
2023/05/03 06:33:18;;;;;;;3.30;0.93;;;;;;;18.23;28.78;101113.69;4249665;28;22080;-68
2023/05/03 06:35:46;;;;;;;3.20;1.23;;;;;;;19.25;27.69;101112.50;4227599;28;20240;-68
2023/05/03 06:38:12;;;;;;;3.47;0.90;;;;;;;19.72;26.63;101104.91;4247495;28;20286;-65
2023/05/03 06:40:40;;;;;;;3.07;1.20;;;;;;;19.63;27.22;101109.66;4226753;28;20255;-77
2023/05/03 06:43:07;;;;;;;5.07;1.20;;;;;;;20.65;25.66;101113.34;4255309;28;21721;-63
2023/05/03 06:45:33;;;;;;;3.00;1.30;;;;;;;22.43;23.63;101109.28;4250637;28;20291;-68
2023/05/03 06:48:00;;;;;;;3.47;1.30;;;;;;;19.72;25.94;101119.47;4224554;28;20516;-63
2023/05/03 06:50:26;;;;;;;3.17;1.10;;;;;;;18.63;27.53;101119.91;4228081;28;20279;-68
2023/05/03 06:52:53;;;;;;;3.50;0.90;;;;;;;17.66;28.95;101108.31;4222172;28;20245;-69
2023/05/03 06:55:20;;;;;;;2.27;1.20;;;;;;;18.81;28.45;101112.19;4229206;28;20250;-70
2023/05/03 06:57:47;;;;;;;3.53;1.30;;;;;;;19.57;27.75;101124.13;4214517;28;20238;-70
2023/05/03 07:00:14;;;;;;;3.07;1.10;;;;;;;21.42;25.30;101113.50;4219996;28;20371;-67
2023/05/03 07:02:41;;;;;;;6.20;1.40;;;;;;;22.27;23.84;101106.91;4218009;28;20243;-68
2023/05/03 07:05:08;;;;;;;5.03;1.40;;;;;;;19.07;27.81;101113.72;4232346;28;20315;-64
2023/05/03 07:07:35;;;;;;;4.60;1.40;;;;;;;21.03;25.77;101128.75;4235180;28;20886;-65
2023/05/03 07:10:02;;;;;;;2.93;1.23;;;;;;;20.33;26.64;101129.31;4247376;28;20240;-68
2023/05/03 07:12:29;;;;;;;4.40;1.23;;;;;;;20.39;26.12;101124.94;4241339;28;20231;-66
2023/05/03 07:14:56;;;;;;;2.23;1.43;;;;;;;21.87;25.03;101120.53;4216424;28;20227;-68
2023/05/03 07:17:23;;;;;;;5.30;1.70;;;;;;;19.24;27.80;101124.53;4216871;28;20334;-67
2023/05/03 07:19:50;;;;;;;16.53;1.97;;;;;;;19.43;27.53;101117.63;4234869;28;20321;-71
2023/05/03 07:22:19;;;;;;;2.53;1.07;;;;;;;19.04;27.41;101126.94;4212208;28;20227;-64
2023/05/03 07:24:46;;;;;;;2.53;1.00;;;;;;;20.35;26.24;101127.22;4233868;28;20339;-63
2023/05/03 07:27:14;;;;;;;2.90;1.20;;;;;;;19.76;26.05;101122.69;4231630;28;20531;-65
2023/05/03 07:29:40;;;;;;;2.90;1.10;;;;;;;17.99;29.18;101130.09;4250091;28;20270;-65
2023/05/03 07:32:07;;;;;;;4.93;1.40;;;;;;;18.75;28.64;101123.91;4236189;28;22068;-64
2023/05/03 07:34:34;;;;;;;5.00;1.27;;;;;;;21.09;24.57;101130.69;4227208;28;22628;-64
2023/05/03 07:37:00;;;;;;;3.17;1.10;;;;;;;19.47;26.80;101128.03;4238380;28;20273;-65
2023/05/03 07:39:27;;;;;;;4.30;1.80;;;;;;;16.29;31.59;101135.44;4234620;28;20240;-69
2023/05/03 07:41:54;;;;;;;1.80;1.17;;;;;;;14.64;35.57;101143.59;4250035;28;20231;-67
2023/05/03 07:44:21;;;;;;;7.27;1.47;;;;;;;14.94;35.04;101138.75;4226906;28;20332;-68
2023/05/03 07:46:48;;;;;;;5.20;1.60;;;;;;;14.38;36.72;101135.34;4210565;28;20231;-66
2023/05/03 07:49:15;;;;;;;4.93;1.87;;;;;;;14.09;37.14;101129.06;4228001;28;20302;-67
2023/05/03 07:51:41;;;;;;;4.73;1.53;;;;;;;14.85;36.59;101131.50;4216313;28;20233;-67
2023/05/03 07:54:08;;;;;;;3.80;1.47;;;;;;;14.98;36.28;101133.81;4232111;28;20426;-67
2023/05/03 07:56:35;;;;;;;3.47;1.50;;;;;;;14.58;37.04;101133.28;4229805;28;20241;-66
2023/05/03 07:59:01;;;;;;;3.37;1.70;;;;;;;14.55;38.15;101133.63;4215461;28;20340;-66
2023/05/03 08:01:36;;;;;;;5.80;1.90;;;;;;;14.20;37.72;101128.00;4223509;28;21350;-67
2023/05/03 08:04:03;;;;;;;4.40;1.87;;;;;;;14.26;38.65;101127.38;4233534;28;20230;-65
2023/05/03 08:06:30;;;;;;;3.13;1.67;;;;;;;14.29;38.26;101138.97;4235338;28;20603;-67
2023/05/03 08:08:57;;;;;;;3.57;1.40;;;;;;;13.93;38.71;101139.78;4225541;28;20232;-67
2023/05/03 08:11:26;;;;;;;3.00;1.43;;;;;;;14.33;37.72;101138.53;4237276;28;21503;-66
2023/05/03 08:13:52;;;;;;;3.43;1.60;;;;;;;14.16;37.92;101144.78;4238828;28;20235;-65
2023/05/03 08:16:19;;;;;;;5.93;1.93;;;;;;;13.12;40.41;101130.34;4235325;28;20310;-67
2023/05/03 08:18:46;;;;;;;3.73;1.60;;;;;;;13.43;40.26;101130.13;4217155;28;20603;-67
2023/05/03 08:21:13;;;;;;;5.00;2.03;;;;;;;13.63;40.07;101137.19;4226067;28;20270;-68
2023/05/03 08:23:41;;;;;;;7.77;2.10;;;;;;;13.49;40.51;101125.97;4236781;28;20239;-67
2023/05/03 08:26:08;;;;;;;5.37;1.87;;;;;;;13.93;39.97;101142.50;4242811;28;20256;-67
2023/05/03 08:28:35;;;;;;;4.03;1.70;;;;;;;14.57;38.78;101131.59;4226636;28;20729;-67
2023/05/03 08:31:05;;;;;;;6.10;1.63;;;;;;;15.09;37.33;101139.00;4224830;28;20298;-68
2023/05/03 08:33:32;;;;;;;5.17;1.80;;;;;;;15.29;35.94;101133.34;4235803;28;20242;-67
2023/05/03 08:35:58;;;;;;;6.13;1.70;;;;;;;15.20;34.98;101126.97;4237471;28;25743;-67
2023/05/03 08:38:26;;;;;;;3.20;1.67;;;;;;;14.74;36.88;101122.56;4255055;28;20366;-67
2023/05/03 08:40:54;;;;;;;5.37;2.17;;;;;;;14.00;38.19;101127.28;4247880;28;21740;-66
2023/05/03 08:43:22;;;;;;;6.17;2.27;;;;;;;14.76;38.21;101135.19;4225246;28;20622;-68
2023/05/03 08:45:50;;;;;;;4.77;1.87;;;;;;;14.89;37.70;101135.63;4240652;28;20234;-66
2023/05/03 08:48:17;;;;;;;4.37;1.90;;;;;;;14.24;37.42;101136.72;4241350;28;20561;-68
2023/05/03 08:50:43;;;;;;;4.57;1.83;;;;;;;14.91;36.28;101139.03;4217996;28;20241;-66
2023/05/03 08:53:10;;;;;;;6.60;2.03;;;;;;;14.62;37.76;101131.09;4248724;28;20230;-69
2023/05/03 08:55:37;;;;;;;5.07;2.10;;;;;;;15.05;37.26;101146.66;4262456;28;20289;-67
2023/05/03 08:58:11;;;;;;;6.50;2.33;;;;;;;14.16;40.09;101139.34;4216000;28;21299;-66
2023/05/03 09:00:37;;;;;;;6.33;2.37;;;;;;;13.97;40.39;101148.50;4223406;28;20293;-68
2023/05/03 09:03:06;;;;;;;6.10;2.20;;;;;;;13.49;41.13;101151.28;4236563;28;20313;-67
2023/05/03 09:05:34;;;;;;;5.77;2.00;;;;;;;12.90;41.78;101151.41;4225493;28;20296;-69
2023/05/03 09:08:05;;;;;;;5.13;2.00;;;;;;;13.51;40.42;101153.88;4253062;28;20712;-68
2023/05/03 09:10:33;;;;;;;5.87;1.80;;;;;;;14.30;37.51;101146.16;4212782;28;20427;-69
2023/05/03 09:13:01;;;;;;;3.93;1.80;;;;;;;14.31;37.21;101142.41;4234403;28;20405;-67
2023/05/03 09:15:30;;;;;;;5.77;1.70;;;;;;;14.28;37.29;101143.56;4237078;28;25542;-67
2023/05/03 09:18:16;;;;;;;2.20;1.50;;;;;;;14.27;37.25;101164.50;4212993;28;21971;-66
2023/05/03 09:20:54;;;;;;;4.67;1.63;;;;;;;13.88;36.68;101158.44;4237876;28;20306;-69
2023/05/03 09:23:25;;;;;;;3.63;1.47;;;;;;;13.55;36.98;101158.88;4221875;28;21947;-66
2023/05/03 09:25:52;;;;;;;2.73;1.40;;;;;;;13.64;37.24;101157.13;4225283;28;23442;-67
2023/05/03 09:28:19;;;;;;;3.70;1.23;;;;;;;13.55;36.71;101155.28;4214986;28;21182;-68
2023/05/03 09:30:47;;;;;;;3.13;1.17;;;;;;;13.67;36.97;101142.34;4229696;28;21175;-67
2023/05/03 09:33:20;;;;;;;2.93;1.13;;;;;;;14.06;35.34;101147.59;4226637;28;21818;-68
2023/05/03 09:36:02;;;;;;;4.10;1.30;;;;;;;14.36;35.34;101149.09;4224191;28;22169;-67
2023/05/03 09:38:31;;;;;;;4.10;1.53;;;;;;;13.81;36.36;101160.06;4218046;28;20243;-67
2023/05/03 09:40:58;;;;;;;2.97;1.20;;;;;;;13.27;36.13;101164.22;4238466;28;20270;-70
2023/05/03 09:43:24;;;;;;;4.43;1.23;;;;;;;13.90;36.67;101162.72;4257174;28;21767;-68
2023/05/03 09:45:51;;;;;;;2.33;1.10;;;;;;;14.47;34.19;101153.44;4224166;28;21397;-67
2023/05/03 09:48:22;;;;;;;3.20;1.30;;;;;;;14.35;34.01;101152.81;4223401;28;20263;-68
2023/05/03 09:50:49;;;;;;;3.40;1.20;;;;;;;14.72;33.77;101153.72;4240979;28;20227;-66
2023/05/03 09:53:17;;;;;;;2.60;1.10;;;;;;;14.69;35.09;101154.03;4223959;28;20231;-68
2023/05/03 09:55:45;;;;;;;3.20;1.10;;;;;;;13.89;36.08;101152.00;4232779;28;20261;-65
2023/05/03 09:58:12;;;;;;;3.50;1.30;;;;;;;14.13;36.20;101151.41;4226039;28;22545;-68
2023/05/03 10:00:41;;;;;;;2.87;1.13;;;;;;;14.37;35.50;101156.25;4220545;28;20228;-68
2023/05/03 10:03:14;;;;;;;2.10;1.23;;;;;;;14.20;36.10;101148.94;4231323;28;20235;-66
2023/05/03 10:05:47;;;;;;;4.87;1.40;;;;;;;14.25;35.62;101147.44;4239033;28;22144;-66
2023/05/03 10:08:27;;;;;;;3.77;1.33;;;;;;;14.16;35.17;101150.25;4225201;28;20487;-68
2023/05/03 10:10:54;;;;;;;9.27;1.40;;;;;;;13.99;37.68;101157.38;4228341;28;20961;-67
2023/05/03 10:13:21;;;;;;;5.87;1.67;;;;;;;14.55;36.15;101155.41;4243605;28;20302;-67
2023/05/03 10:15:52;;;;;;;3.53;1.30;;;;;;;14.43;36.48;101152.06;4202993;28;20928;-69
2023/05/03 10:18:20;;;;;;;2.07;1.30;;;;;;;14.52;36.22;101158.44;4225766;28;20331;-67
2023/05/03 10:21:00;;;;;;;2.40;1.50;;;;;;;14.42;36.97;101166.69;4257134;28;23309;-67
2023/05/03 10:23:27;;;;;;;3.87;1.37;;;;;;;14.77;35.17;101148.63;4221219;28;20244;-67
2023/05/03 10:26:12;;;;;;;2.73;1.47;;;;;;;14.74;34.71;101149.81;4234648;28;20384;-68
2023/05/03 10:28:38;;;;;;;6.73;1.80;;;;;;;14.66;35.56;101138.00;4242967;28;20249;-67
2023/05/03 10:31:05;;;;;;;5.73;1.60;;;;;;;14.84;35.66;101147.00;4241529;28;20250;-65
2023/05/03 10:33:35;;;;;;;5.87;1.60;;;;;;;14.19;36.89;101147.22;4233377;28;20355;-67
2023/05/03 10:36:06;;;;;;;5.40;1.50;;;;;;;14.54;37.51;101151.81;4207162;28;20235;-68
2023/05/03 10:38:32;;;;;;;4.07;1.47;;;;;;;14.48;36.14;101155.16;4246568;28;20383;-65
2023/05/03 10:41:02;;;;;;;6.60;1.83;;;;;;;14.47;37.69;101158.06;4239101;28;21005;-66
2023/05/03 10:43:32;;;;;;;3.43;1.60;;;;;;;14.78;35.30;101161.25;4217564;28;20298;-69
2023/05/03 10:46:02;;;;;;;6.63;1.93;;;;;;;14.52;35.38;101153.84;4233396;28;20266;-66
2023/05/03 10:48:33;;;;;;;2.80;1.43;;;;;;;14.64;36.07;101150.88;4250509;28;20235;-65
2023/05/03 10:51:27;;;;;;;6.63;1.70;;;;;;;14.96;35.15;101158.50;4242084;28;20242;-68
2023/05/03 10:53:54;;;;;;;3.13;1.50;;;;;;;14.65;34.96;101150.72;4220903;28;22500;-67
2023/05/03 10:56:21;;;;;;;2.90;1.50;;;;;;;14.51;34.59;101156.72;4219407;28;21138;-67
2023/05/03 10:58:55;;;;;;;4.87;1.50;;;;;;;13.80;35.92;101148.28;4236978;28;20891;-67
2023/05/03 11:01:23;;;;;;;2.23;1.40;;;;;;;13.89;36.30;101157.44;4233129;28;22326;-66
2023/05/03 11:04:08;;;;;;;3.50;1.30;;;;;;;14.48;33.90;101159.78;4229231;28;20310;-69
2023/05/03 11:06:40;;;;;;;5.90;1.20;;;;;;;14.87;33.64;101159.47;4251747;28;20238;-62
2023/05/03 11:09:08;;;;;;;2.63;1.30;;;;;;;14.88;32.71;101158.44;4254808;28;21625;-67
2023/05/03 11:11:38;;;;;;;2.80;1.40;;;;;;;14.61;32.43;101152.06;4220570;28;21237;-66
2023/05/03 11:14:06;;;;;;;3.43;1.40;;;;;;;15.23;34.51;101144.88;4241143;28;20467;-63
2023/05/03 11:16:35;;;;;;;4.87;1.57;;;;;;;14.61;34.52;101152.06;4278291;28;20576;-66
2023/05/03 11:19:02;;;;;;;2.87;1.60;;;;;;;14.73;34.68;101144.53;4253499;28;20882;-68
2023/05/03 11:21:30;;;;;;;5.03;1.20;;;;;;;14.93;35.56;101169.75;4228177;28;22081;-64
2023/05/03 11:23:58;;;;;;;7.17;1.67;;;;;;;14.83;35.07;101161.66;4228151;28;20240;-67
2023/05/03 11:26:25;;;;;;;3.07;1.40;;;;;;;14.52;34.97;101159.31;4241600;28;20734;-64
2023/05/03 11:28:52;;;;;;;3.03;1.40;;;;;;;14.62;35.15;101163.78;4245180;28;20483;-67
2023/05/03 11:31:19;;;;;;;3.50;1.20;;;;;;;15.02;33.89;101157.88;4208799;28;20296;-68
2023/05/03 11:33:48;;;;;;;3.00;1.27;;;;;;;15.25;33.67;101157.38;4214702;28;20664;-65